sensor_id;sensor_type;location;lat;lon;timestamp;temperature;humidity
65573;SHT30;52214;50.940;13.996;2023-01-08T00:01:30;4.80;96.98
65573;SHT30;52214;50.940;13.996;2023-01-08T00:03:56;4.83;96.72
65573;SHT30;52214;50.940;13.996;2023-01-08T00:06:21;4.98;96.57
65573;SHT30;52214;50.940;13.996;2023-01-08T00:08:47;4.94;96.24
65573;SHT30;52214;50.940;13.996;2023-01-08T00:11:14;4.98;96.35
65573;SHT30;52214;50.940;13.996;2023-01-08T00:13:39;5.14;96.08
65573;SHT30;52214;50.940;13.996;2023-01-08T00:16:14;5.17;95.92
65573;SHT30;52214;50.940;13.996;2023-01-08T00:18:41;5.14;95.82
65573;SHT30;52214;50.940;13.996;2023-01-08T00:21:06;5.05;95.72
65573;SHT30;52214;50.940;13.996;2023-01-08T00:23:35;4.94;95.99
65573;SHT30;52214;50.940;13.996;2023-01-08T00:26:03;4.94;95.82
65573;SHT30;52214;50.940;13.996;2023-01-08T00:28:29;4.94;95.99
65573;SHT30;52214;50.940;13.996;2023-01-08T00:30:55;4.73;96.27
65573;SHT30;52214;50.940;13.996;2023-01-08T00:33:20;4.52;96.83
65573;SHT30;52214;50.940;13.996;2023-01-08T00:35:46;4.29;97.83
65573;SHT30;52214;50.940;13.996;2023-01-08T00:38:11;4.21;98.39
65573;SHT30;52214;50.940;13.996;2023-01-08T00:40:37;4.27;98.06
65573;SHT30;52214;50.940;13.996;2023-01-08T00:43:05;4.24;98.47
65573;SHT30;52214;50.940;13.996;2023-01-08T00:45:31;4.17;98.58
65573;SHT30;52214;50.940;13.996;2023-01-08T00:47:57;4.05;99.11
65573;SHT30;52214;50.940;13.996;2023-01-08T00:50:23;4.00;99.55
65573;SHT30;52214;50.940;13.996;2023-01-08T00:52:48;3.98;99.99
65573;SHT30;52214;50.940;13.996;2023-01-08T00:55:14;3.93;99.94
65573;SHT30;52214;50.940;13.996;2023-01-08T00:57:39;4.00;99.81
65573;SHT30;52214;50.940;13.996;2023-01-08T01:00:08;3.89;99.99
65573;SHT30;52214;50.940;13.996;2023-01-08T01:02:34;4.04;99.99
65573;SHT30;52214;50.940;13.996;2023-01-08T01:05:00;3.97;99.99
65573;SHT30;52214;50.940;13.996;2023-01-08T01:07:26;4.08;99.99
65573;SHT30;52214;50.940;13.996;2023-01-08T01:09:51;4.18;99.99
65573;SHT30;52214;50.940;13.996;2023-01-08T01:12:17;4.36;99.61
65573;SHT30;52214;50.940;13.996;2023-01-08T01:14:42;4.34;99.81
65573;SHT30;52214;50.940;13.996;2023-01-08T01:17:10;4.25;99.99
65573;SHT30;52214;50.940;13.996;2023-01-08T01:19:35;4.29;99.74
65573;SHT30;52214;50.940;13.996;2023-01-08T01:22:01;4.29;99.63
65573;SHT30;52214;50.940;13.996;2023-01-08T01:24:26;4.22;99.98
65573;SHT30;52214;50.940;13.996;2023-01-08T01:26:52;4.12;99.99
65573;SHT30;52214;50.940;13.996;2023-01-08T01:29:17;4.21;99.99
65573;SHT30;52214;50.940;13.996;2023-01-08T01:31:49;4.29;99.99
65573;SHT30;52214;50.940;13.996;2023-01-08T01:34:15;4.28;99.78
65573;SHT30;52214;50.940;13.996;2023-01-08T01:36:40;4.32;99.56
65573;SHT30;52214;50.940;13.996;2023-01-08T01:39:06;4.22;99.98
65573;SHT30;52214;50.940;13.996;2023-01-08T01:41:44;4.24;99.94
65573;SHT30;52214;50.940;13.996;2023-01-08T01:46:57;4.29;99.33
65573;SHT30;52214;50.940;13.996;2023-01-08T01:49:23;4.22;99.49
65573;SHT30;52214;50.940;13.996;2023-01-08T01:51:52;4.17;99.66
65573;SHT30;52214;50.940;13.996;2023-01-08T01:54:19;4.08;99.99
65573;SHT30;52214;50.940;13.996;2023-01-08T01:56:46;4.09;99.99
65573;SHT30;52214;50.940;13.996;2023-01-08T01:59:12;4.08;99.90
65573;SHT30;52214;50.940;13.996;2023-01-08T02:01:39;4.22;99.71
65573;SHT30;52214;50.940;13.996;2023-01-08T02:04:05;4.15;99.99
65573;SHT30;52214;50.940;13.996;2023-01-08T02:06:34;4.14;99.99
65573;SHT30;52214;50.940;13.996;2023-01-08T02:09:08;4.19;99.71
65573;SHT30;52214;50.940;13.996;2023-01-08T02:11:45;4.34;99.50
65573;SHT30;52214;50.940;13.996;2023-01-08T02:14:31;4.21;99.62
65573;SHT30;52214;50.940;13.996;2023-01-08T02:17:03;4.19;99.59
65573;SHT30;52214;50.940;13.996;2023-01-08T02:19:39;4.19;99.93
65573;SHT30;52214;50.940;13.996;2023-01-08T02:27:16;3.90;99.92
65573;SHT30;52214;50.940;13.996;2023-01-08T02:29:42;3.79;99.99
65573;SHT30;52214;50.940;13.996;2023-01-08T02:32:08;3.80;99.99
65573;SHT30;52214;50.940;13.996;2023-01-08T02:34:34;3.77;99.99
65573;SHT30;52214;50.940;13.996;2023-01-08T02:37:00;3.73;99.99
65573;SHT30;52214;50.940;13.996;2023-01-08T02:39:54;3.97;99.99
65573;SHT30;52214;50.940;13.996;2023-01-08T02:42:44;4.14;99.99
65573;SHT30;52214;50.940;13.996;2023-01-08T02:45:26;4.05;99.99
65573;SHT30;52214;50.940;13.996;2023-01-08T02:50:36;4.22;99.93
65573;SHT30;52214;50.940;13.996;2023-01-08T02:55:42;4.29;99.61
65573;SHT30;52214;50.940;13.996;2023-01-08T02:58:10;4.18;99.99
65573;SHT30;52214;50.940;13.996;2023-01-08T03:00:38;4.17;99.99
65573;SHT30;52214;50.940;13.996;2023-01-08T03:03:12;4.18;99.99
65573;SHT30;52214;50.940;13.996;2023-01-08T03:05:40;3.95;99.91
65573;SHT30;52214;50.940;13.996;2023-01-08T03:08:07;3.76;99.99
65573;SHT30;52214;50.940;13.996;2023-01-08T03:10:35;3.67;99.99
65573;SHT30;52214;50.940;13.996;2023-01-08T03:13:06;3.53;99.99
65573;SHT30;52214;50.940;13.996;2023-01-08T03:15:37;3.56;99.99
65573;SHT30;52214;50.940;13.996;2023-01-08T03:18:09;3.53;99.99
65573;SHT30;52214;50.940;13.996;2023-01-08T03:20:37;3.46;99.99
65573;SHT30;52214;50.940;13.996;2023-01-08T03:23:05;3.52;99.99
65573;SHT30;52214;50.940;13.996;2023-01-08T03:25:32;3.73;99.99
65573;SHT30;52214;50.940;13.996;2023-01-08T03:28:02;3.72;99.99
65573;SHT30;52214;50.940;13.996;2023-01-08T03:30:30;3.81;99.99
65573;SHT30;52214;50.940;13.996;2023-01-08T03:32:59;3.93;99.99
65573;SHT30;52214;50.940;13.996;2023-01-08T03:35:26;4.04;99.99
65573;SHT30;52214;50.940;13.996;2023-01-08T03:38:25;4.01;99.99
65573;SHT30;52214;50.940;13.996;2023-01-08T03:40:56;3.90;99.99
65573;SHT30;52214;50.940;13.996;2023-01-08T03:43:24;3.94;99.99
65573;SHT30;52214;50.940;13.996;2023-01-08T03:45:55;3.93;99.99
65573;SHT30;52214;50.940;13.996;2023-01-08T03:48:24;3.93;99.99
65573;SHT30;52214;50.940;13.996;2023-01-08T03:50:50;3.98;99.99
65573;SHT30;52214;50.940;13.996;2023-01-08T03:53:16;4.01;99.99
65573;SHT30;52214;50.940;13.996;2023-01-08T03:55:41;4.05;99.99
65573;SHT30;52214;50.940;13.996;2023-01-08T03:58:07;3.95;99.99
65573;SHT30;52214;50.940;13.996;2023-01-08T04:00:32;4.21;99.99
65573;SHT30;52214;50.940;13.996;2023-01-08T04:02:57;4.24;99.99
65573;SHT30;52214;50.940;13.996;2023-01-08T04:05:23;4.31;99.99
65573;SHT30;52214;50.940;13.996;2023-01-08T04:07:49;4.41;99.99
65573;SHT30;52214;50.940;13.996;2023-01-08T04:10:14;4.44;99.99
65573;SHT30;52214;50.940;13.996;2023-01-08T04:12:42;4.52;99.99
65573;SHT30;52214;50.940;13.996;2023-01-08T04:15:08;4.50;99.99
65573;SHT30;52214;50.940;13.996;2023-01-08T04:17:33;4.63;99.95
65573;SHT30;52214;50.940;13.996;2023-01-08T04:19:59;4.70;99.36
65573;SHT30;52214;50.940;13.996;2023-01-08T04:22:24;4.74;99.62
65573;SHT30;52214;50.940;13.996;2023-01-08T04:24:49;4.77;99.56
65573;SHT30;52214;50.940;13.996;2023-01-08T04:27:15;4.81;99.38
65573;SHT30;52214;50.940;13.996;2023-01-08T04:29:40;4.87;99.31
65573;SHT30;52214;50.940;13.996;2023-01-08T04:32:06;4.77;99.39
65573;SHT30;52214;50.940;13.996;2023-01-08T04:34:31;4.69;99.54
65573;SHT30;52214;50.940;13.996;2023-01-08T04:36:57;4.73;99.41
65573;SHT30;52214;50.940;13.996;2023-01-08T04:39:23;4.67;99.74
65573;SHT30;52214;50.940;13.996;2023-01-08T04:41:48;4.66;99.88
65573;SHT30;52214;50.940;13.996;2023-01-08T04:44:14;4.76;99.66
65573;SHT30;52214;50.940;13.996;2023-01-08T04:46:39;4.64;99.72
65573;SHT30;52214;50.940;13.996;2023-01-08T04:49:05;4.69;99.99
65573;SHT30;52214;50.940;13.996;2023-01-08T04:51:30;4.85;99.40
65573;SHT30;52214;50.940;13.996;2023-01-08T04:53:56;4.88;99.16
65573;SHT30;52214;50.940;13.996;2023-01-08T04:56:21;4.97;99.51
65573;SHT30;52214;50.940;13.996;2023-01-08T04:58:47;5.09;98.61
65573;SHT30;52214;50.940;13.996;2023-01-08T05:01:19;5.11;98.43
65573;SHT30;52214;50.940;13.996;2023-01-08T05:03:45;5.11;98.75
65573;SHT30;52214;50.940;13.996;2023-01-08T05:06:10;5.15;98.40
65573;SHT30;52214;50.940;13.996;2023-01-08T05:08:36;5.17;98.48
65573;SHT30;52214;50.940;13.996;2023-01-08T05:11:02;5.17;98.61
65573;SHT30;52214;50.940;13.996;2023-01-08T05:13:28;5.15;98.38
65573;SHT30;52214;50.940;13.996;2023-01-08T05:15:57;5.21;98.68
65573;SHT30;52214;50.940;13.996;2023-01-08T05:18:23;5.24;98.59
65573;SHT30;52214;50.940;13.996;2023-01-08T05:20:48;5.02;99.28
65573;SHT30;52214;50.940;13.996;2023-01-08T05:23:14;5.11;99.19
65573;SHT30;52214;50.940;13.996;2023-01-08T05:25:39;5.14;98.09
65573;SHT30;52214;50.940;13.996;2023-01-08T05:28:05;5.27;97.65
65573;SHT30;52214;50.940;13.996;2023-01-08T05:30:30;5.15;97.67
65573;SHT30;52214;50.940;13.996;2023-01-08T05:32:56;5.02;98.05
65573;SHT30;52214;50.940;13.996;2023-01-08T05:35:21;4.92;97.98
65573;SHT30;52214;50.940;13.996;2023-01-08T05:37:47;4.97;98.15
65573;SHT30;52214;50.940;13.996;2023-01-08T05:40:12;4.74;98.47
65573;SHT30;52214;50.940;13.996;2023-01-08T05:42:38;4.80;98.21
65573;SHT30;52214;50.940;13.996;2023-01-08T05:45:04;4.74;98.49
65573;SHT30;52214;50.940;13.996;2023-01-08T05:47:31;4.74;98.45
65573;SHT30;52214;50.940;13.996;2023-01-08T05:49:57;4.69;98.56
65573;SHT30;52214;50.940;13.996;2023-01-08T05:52:23;4.60;98.89
65573;SHT30;52214;50.940;13.996;2023-01-08T05:54:49;4.53;98.99
65573;SHT30;52214;50.940;13.996;2023-01-08T05:57:15;4.52;99.10
65573;SHT30;52214;50.940;13.996;2023-01-08T05:59:40;4.41;99.48
65573;SHT30;52214;50.940;13.996;2023-01-08T06:02:06;4.38;99.69
65573;SHT30;52214;50.940;13.996;2023-01-08T06:04:32;4.39;99.60
65573;SHT30;52214;50.940;13.996;2023-01-08T06:06:57;4.42;99.32
65573;SHT30;52214;50.940;13.996;2023-01-08T06:09:23;4.34;99.59
65573;SHT30;52214;50.940;13.996;2023-01-08T06:11:48;4.38;99.68
65573;SHT30;52214;50.940;13.996;2023-01-08T06:14:15;4.18;99.99
65573;SHT30;52214;50.940;13.996;2023-01-08T06:16:42;4.18;99.99
65573;SHT30;52214;50.940;13.996;2023-01-08T06:19:09;4.28;99.92
65573;SHT30;52214;50.940;13.996;2023-01-08T06:21:34;4.45;99.78
65573;SHT30;52214;50.940;13.996;2023-01-08T06:24:00;4.50;99.58
65573;SHT30;52214;50.940;13.996;2023-01-08T06:26:25;4.48;99.53
65573;SHT30;52214;50.940;13.996;2023-01-08T06:28:51;4.36;99.85
65573;SHT30;52214;50.940;13.996;2023-01-08T06:31:16;4.15;99.99
65573;SHT30;52214;50.940;13.996;2023-01-08T06:33:43;4.25;99.99
65573;SHT30;52214;50.940;13.996;2023-01-08T06:36:08;4.41;99.77
65573;SHT30;52214;50.940;13.996;2023-01-08T06:38:34;4.41;99.96
65573;SHT30;52214;50.940;13.996;2023-01-08T06:41:04;4.34;99.99
65573;SHT30;52214;50.940;13.996;2023-01-08T06:43:32;4.36;99.99
65573;SHT30;52214;50.940;13.996;2023-01-08T06:45:58;4.38;99.99
65573;SHT30;52214;50.940;13.996;2023-01-08T06:48:24;4.44;99.99
65573;SHT30;52214;50.940;13.996;2023-01-08T06:50:50;4.44;99.99
65573;SHT30;52214;50.940;13.996;2023-01-08T06:53:16;4.48;99.82
65573;SHT30;52214;50.940;13.996;2023-01-08T06:55:41;4.52;99.87
65573;SHT30;52214;50.940;13.996;2023-01-08T06:58:08;4.44;99.99
65573;SHT30;52214;50.940;13.996;2023-01-08T07:00:34;4.41;99.99
65573;SHT30;52214;50.940;13.996;2023-01-08T07:03:00;4.42;99.99
65573;SHT30;52214;50.940;13.996;2023-01-08T07:05:25;4.45;99.99
65573;SHT30;52214;50.940;13.996;2023-01-08T07:07:51;4.55;99.72
65573;SHT30;52214;50.940;13.996;2023-01-08T07:10:17;4.52;99.71
65573;SHT30;52214;50.940;13.996;2023-01-08T07:12:42;4.64;99.58
65573;SHT30;52214;50.940;13.996;2023-01-08T07:15:08;4.63;99.35
65573;SHT30;52214;50.940;13.996;2023-01-08T07:17:34;4.80;99.22
65573;SHT30;52214;50.940;13.996;2023-01-08T07:19:59;4.85;98.36
65573;SHT30;52214;50.940;13.996;2023-01-08T07:22:25;4.88;98.04
65573;SHT30;52214;50.940;13.996;2023-01-08T07:24:51;4.90;98.25
65573;SHT30;52214;50.940;13.996;2023-01-08T07:27:17;5.00;98.16
65573;SHT30;52214;50.940;13.996;2023-01-08T07:29:43;5.04;97.79
65573;SHT30;52214;50.940;13.996;2023-01-08T07:32:08;5.00;97.76
65573;SHT30;52214;50.940;13.996;2023-01-08T07:34:34;4.97;97.88
65573;SHT30;52214;50.940;13.996;2023-01-08T07:37:01;5.04;97.88
65573;SHT30;52214;50.940;13.996;2023-01-08T07:39:27;5.04;97.52
65573;SHT30;52214;50.940;13.996;2023-01-08T07:41:52;5.05;97.57
65573;SHT30;52214;50.940;13.996;2023-01-08T07:44:19;5.11;97.56
65573;SHT30;52214;50.940;13.996;2023-01-08T07:46:44;5.18;97.43
65573;SHT30;52214;50.940;13.996;2023-01-08T07:49:11;5.14;97.27
65573;SHT30;52214;50.940;13.996;2023-01-08T07:51:36;5.18;97.40
65573;SHT30;52214;50.940;13.996;2023-01-08T07:54:02;5.21;97.18
65573;SHT30;52214;50.940;13.996;2023-01-08T07:56:27;5.25;96.86
65573;SHT30;52214;50.940;13.996;2023-01-08T07:58:53;5.24;97.25
65573;SHT30;52214;50.940;13.996;2023-01-08T08:01:18;5.34;96.71
65573;SHT30;52214;50.940;13.996;2023-01-08T08:03:44;5.35;96.53
65573;SHT30;52214;50.940;13.996;2023-01-08T08:06:09;5.24;96.98
65573;SHT30;52214;50.940;13.996;2023-01-08T08:08:35;5.32;96.59
65573;SHT30;52214;50.940;13.996;2023-01-08T08:11:01;5.31;96.44
65573;SHT30;52214;50.940;13.996;2023-01-08T08:13:26;5.35;96.45
65573;SHT30;52214;50.940;13.996;2023-01-08T08:15:52;5.36;96.28
65573;SHT30;52214;50.940;13.996;2023-01-08T08:18:18;5.36;96.41
65573;SHT30;52214;50.940;13.996;2023-01-08T08:20:43;5.45;96.31
65573;SHT30;52214;50.940;13.996;2023-01-08T08:23:11;5.47;95.99
65573;SHT30;52214;50.940;13.996;2023-01-08T08:25:38;5.56;95.86
65573;SHT30;52214;50.940;13.996;2023-01-08T08:28:05;5.46;95.86
65573;SHT30;52214;50.940;13.996;2023-01-08T08:30:33;5.56;95.98
65573;SHT30;52214;50.940;13.996;2023-01-08T08:33:01;5.64;95.79
65573;SHT30;52214;50.940;13.996;2023-01-08T08:35:28;5.64;95.14
65573;SHT30;52214;50.940;13.996;2023-01-08T08:37:55;5.69;94.99
65573;SHT30;52214;50.940;13.996;2023-01-08T08:40:21;5.71;95.03
65573;SHT30;52214;50.940;13.996;2023-01-08T08:42:47;5.59;95.06
65573;SHT30;52214;50.940;13.996;2023-01-08T08:45:13;5.74;94.64
65573;SHT30;52214;50.940;13.996;2023-01-08T08:47:39;5.84;94.53
65573;SHT30;52214;50.940;13.996;2023-01-08T08:50:05;6.08;94.25
65573;SHT30;52214;50.940;13.996;2023-01-08T08:52:32;6.29;93.76
65573;SHT30;52214;50.940;13.996;2023-01-08T08:54:59;6.29;93.54
65573;SHT30;52214;50.940;13.996;2023-01-08T08:57:25;6.52;93.08
65573;SHT30;52214;50.940;13.996;2023-01-08T08:59:51;6.40;92.33
65573;SHT30;52214;50.940;13.996;2023-01-08T09:02:16;6.43;92.36
65573;SHT30;52214;50.940;13.996;2023-01-08T09:04:42;6.40;92.26
65573;SHT30;52214;50.940;13.996;2023-01-08T09:07:07;6.33;92.38
65573;SHT30;52214;50.940;13.996;2023-01-08T09:09:34;6.33;92.78
65573;SHT30;52214;50.940;13.996;2023-01-08T09:12:00;6.32;92.98
65573;SHT30;52214;50.940;13.996;2023-01-08T09:14:26;6.24;93.13
65573;SHT30;52214;50.940;13.996;2023-01-08T09:16:52;6.17;92.66
65573;SHT30;52214;50.940;13.996;2023-01-08T09:19:17;6.26;92.84
65573;SHT30;52214;50.940;13.996;2023-01-08T09:21:43;6.33;92.89
65573;SHT30;52214;50.940;13.996;2023-01-08T09:24:08;6.24;93.19
65573;SHT30;52214;50.940;13.996;2023-01-08T09:26:34;6.39;92.93
65573;SHT30;52214;50.940;13.996;2023-01-08T09:28:59;6.33;92.71
65573;SHT30;52214;50.940;13.996;2023-01-08T09:31:25;6.18;92.41
65573;SHT30;52214;50.940;13.996;2023-01-08T09:33:51;6.25;92.68
65573;SHT30;52214;50.940;13.996;2023-01-08T09:36:17;6.42;93.34
65573;SHT30;52214;50.940;13.996;2023-01-08T09:38:43;6.66;92.88
65573;SHT30;52214;50.940;13.996;2023-01-08T09:41:12;6.76;92.94
65573;SHT30;52214;50.940;13.996;2023-01-08T09:43:41;6.97;92.29
65573;SHT30;52214;50.940;13.996;2023-01-08T09:46:10;7.18;91.71
65573;SHT30;52214;50.940;13.996;2023-01-08T09:48:38;7.23;91.30
65573;SHT30;52214;50.940;13.996;2023-01-08T09:51:17;7.22;91.20
65573;SHT30;52214;50.940;13.996;2023-01-08T09:53:45;6.90;91.67
65573;SHT30;52214;50.940;13.996;2023-01-08T09:56:16;6.79;92.58
65573;SHT30;52214;50.940;13.996;2023-01-08T09:58:53;6.63;92.52
65573;SHT30;52214;50.940;13.996;2023-01-08T10:01:25;6.53;93.27
65573;SHT30;52214;50.940;13.996;2023-01-08T10:06:31;6.32;93.51
65573;SHT30;52214;50.940;13.996;2023-01-08T10:08:57;6.50;93.13
65573;SHT30;52214;50.940;13.996;2023-01-08T10:11:39;6.52;93.06
65573;SHT30;52214;50.940;13.996;2023-01-08T10:14:18;6.32;93.36
65573;SHT30;52214;50.940;13.996;2023-01-08T10:16:46;6.36;93.35
65573;SHT30;52214;50.940;13.996;2023-01-08T10:19:14;6.45;93.02
65573;SHT30;52214;50.940;13.996;2023-01-08T10:21:40;6.18;94.01
65573;SHT30;52214;50.940;13.996;2023-01-08T10:24:06;6.26;93.58
65573;SHT30;52214;50.940;13.996;2023-01-08T10:26:35;6.38;93.47
65573;SHT30;52214;50.940;13.996;2023-01-08T10:29:10;6.35;93.45
65573;SHT30;52214;50.940;13.996;2023-01-08T10:31:51;6.43;93.46
65573;SHT30;52214;50.940;13.996;2023-01-08T10:34:31;6.29;93.64
65573;SHT30;52214;50.940;13.996;2023-01-08T10:37:23;6.24;93.27
65573;SHT30;52214;50.940;13.996;2023-01-08T10:39:51;6.30;93.50
65573;SHT30;52214;50.940;13.996;2023-01-08T10:42:19;6.21;93.31
65573;SHT30;52214;50.940;13.996;2023-01-08T10:47:19;6.21;93.28
65573;SHT30;52214;50.940;13.996;2023-01-08T10:49:44;6.35;93.20
65573;SHT30;52214;50.940;13.996;2023-01-08T10:52:29;6.33;92.92
65573;SHT30;52214;50.940;13.996;2023-01-08T10:55:09;6.35;92.73
65573;SHT30;52214;50.940;13.996;2023-01-08T10:57:34;6.25;93.46
65573;SHT30;52214;50.940;13.996;2023-01-08T11:00:00;6.38;92.94
65573;SHT30;52214;50.940;13.996;2023-01-08T11:02:33;6.53;92.66
65573;SHT30;52214;50.940;13.996;2023-01-08T11:04:59;6.56;93.47
65573;SHT30;52214;50.940;13.996;2023-01-08T11:07:26;6.63;92.05
65573;SHT30;52214;50.940;13.996;2023-01-08T11:09:53;6.62;92.24
65573;SHT30;52214;50.940;13.996;2023-01-08T11:12:39;6.69;92.39
65573;SHT30;52214;50.940;13.996;2023-01-08T11:15:40;6.46;92.05
65573;SHT30;52214;50.940;13.996;2023-01-08T11:18:16;6.57;91.20
65573;SHT30;52214;50.940;13.996;2023-01-08T11:20:43;6.58;91.10
65573;SHT30;52214;50.940;13.996;2023-01-08T11:23:23;6.56;90.70
65573;SHT30;52214;50.940;13.996;2023-01-08T11:26:09;6.66;90.48
65573;SHT30;52214;50.940;13.996;2023-01-08T11:31:20;6.58;90.21
65573;SHT30;52214;50.940;13.996;2023-01-08T11:33:51;6.50;90.26
65573;SHT30;52214;50.940;13.996;2023-01-08T11:36:31;6.52;90.40
65573;SHT30;52214;50.940;13.996;2023-01-08T11:38:59;6.39;90.44
65573;SHT30;52214;50.940;13.996;2023-01-08T11:42:05;6.38;90.49
65573;SHT30;52214;50.940;13.996;2023-01-08T11:44:48;6.43;90.69
65573;SHT30;52214;50.940;13.996;2023-01-08T11:56:25;6.33;91.14
65573;SHT30;52214;50.940;13.996;2023-01-08T11:59:18;6.36;90.71
65573;SHT30;52214;50.940;13.996;2023-01-08T12:01:53;6.46;90.52
65573;SHT30;52214;50.940;13.996;2023-01-08T12:05:08;6.47;90.67
65573;SHT30;52214;50.940;13.996;2023-01-08T12:08:11;6.46;90.87
65573;SHT30;52214;50.940;13.996;2023-01-08T12:13:44;6.42;90.67
65573;SHT30;52214;50.940;13.996;2023-01-08T12:21:33;6.57;90.73
65573;SHT30;52214;50.940;13.996;2023-01-08T12:27:34;6.79;90.30
65573;SHT30;52214;50.940;13.996;2023-01-08T12:30:29;6.80;89.59
65573;SHT30;52214;50.940;13.996;2023-01-08T12:36:07;6.84;90.23
65573;SHT30;52214;50.940;13.996;2023-01-08T12:38:42;6.72;89.76
65573;SHT30;52214;50.940;13.996;2023-01-08T12:41:15;6.63;89.93
65573;SHT30;52214;50.940;13.996;2023-01-08T12:43:56;6.53;90.63
65573;SHT30;52214;50.940;13.996;2023-01-08T12:46:30;6.54;90.69
65573;SHT30;52214;50.940;13.996;2023-01-08T12:48:58;6.36;90.43
65573;SHT30;52214;50.940;13.996;2023-01-08T12:54:18;6.29;91.87
65573;SHT30;52214;50.940;13.996;2023-01-08T12:57:11;6.19;91.96
65573;SHT30;52214;50.940;13.996;2023-01-08T12:59:50;6.22;92.28
65573;SHT30;52214;50.940;13.996;2023-01-08T13:02:36;6.28;91.78
65573;SHT30;52214;50.940;13.996;2023-01-08T13:07:58;6.15;91.68
65573;SHT30;52214;50.940;13.996;2023-01-08T13:12:57;6.12;91.89
65573;SHT30;52214;50.940;13.996;2023-01-08T13:15:25;6.21;92.19
65573;SHT30;52214;50.940;13.996;2023-01-08T13:17:52;6.19;91.95
65573;SHT30;52214;50.940;13.996;2023-01-08T13:20:23;6.21;92.11
65573;SHT30;52214;50.940;13.996;2023-01-08T13:22:53;6.08;92.50
65573;SHT30;52214;50.940;13.996;2023-01-08T13:27:46;5.89;93.28
65573;SHT30;52214;50.940;13.996;2023-01-08T13:30:38;5.89;93.36
65573;SHT30;52214;50.940;13.996;2023-01-08T13:33:35;5.93;93.19
65573;SHT30;52214;50.940;13.996;2023-01-08T13:38:37;5.95;93.04
65573;SHT30;52214;50.940;13.996;2023-01-08T13:41:02;5.90;92.99
65573;SHT30;52214;50.940;13.996;2023-01-08T13:43:37;5.98;93.15
65573;SHT30;52214;50.940;13.996;2023-01-08T13:46:14;5.93;92.82
65573;SHT30;52214;50.940;13.996;2023-01-08T13:48:54;5.98;92.88
65573;SHT30;52214;50.940;13.996;2023-01-08T13:54:17;5.95;92.69
65573;SHT30;52214;50.940;13.996;2023-01-08T13:56:46;5.98;92.79
65573;SHT30;52214;50.940;13.996;2023-01-08T14:01:52;5.89;92.92
65573;SHT30;52214;50.940;13.996;2023-01-08T14:04:22;5.90;93.01
65573;SHT30;52214;50.940;13.996;2023-01-08T14:06:48;5.84;93.19
65573;SHT30;52214;50.940;13.996;2023-01-08T14:09:22;5.81;92.93
65573;SHT30;52214;50.940;13.996;2023-01-08T14:11:51;5.74;93.32
65573;SHT30;52214;50.940;13.996;2023-01-08T14:14:19;5.75;93.85
65573;SHT30;52214;50.940;13.996;2023-01-08T14:16:46;5.83;93.52
65573;SHT30;52214;50.940;13.996;2023-01-08T14:19:21;5.87;93.75
65573;SHT30;52214;50.940;13.996;2023-01-08T14:21:48;5.80;93.75
65573;SHT30;52214;50.940;13.996;2023-01-08T14:24:15;5.77;93.94
65573;SHT30;52214;50.940;13.996;2023-01-08T14:26:41;5.69;94.34
65573;SHT30;52214;50.940;13.996;2023-01-08T14:29:13;5.80;93.84
65573;SHT30;52214;50.940;13.996;2023-01-08T14:31:54;5.84;94.09
65573;SHT30;52214;50.940;13.996;2023-01-08T14:34:21;5.71;94.92
65573;SHT30;52214;50.940;13.996;2023-01-08T14:36:52;5.69;95.13
65573;SHT30;52214;50.940;13.996;2023-01-08T14:39:23;5.66;95.40
65573;SHT30;52214;50.940;13.996;2023-01-08T14:41:51;5.66;96.11
65573;SHT30;52214;50.940;13.996;2023-01-08T14:44:37;5.52;96.78
65573;SHT30;52214;50.940;13.996;2023-01-08T14:47:03;5.57;96.94
65573;SHT30;52214;50.940;13.996;2023-01-08T14:49:32;5.64;96.62
65573;SHT30;52214;50.940;13.996;2023-01-08T14:52:00;5.59;96.31
65573;SHT30;52214;50.940;13.996;2023-01-08T14:54:32;5.55;96.45
65573;SHT30;52214;50.940;13.996;2023-01-08T14:56:59;5.47;96.60
65573;SHT30;52214;50.940;13.996;2023-01-08T14:59:31;5.45;96.74
65573;SHT30;52214;50.940;13.996;2023-01-08T15:01:59;5.42;97.04
65573;SHT30;52214;50.940;13.996;2023-01-08T15:04:27;5.42;97.29
65573;SHT30;52214;50.940;13.996;2023-01-08T15:07:06;5.32;97.08
65573;SHT30;52214;50.940;13.996;2023-01-08T15:09:33;5.21;97.58
65573;SHT30;52214;50.940;13.996;2023-01-08T15:12:06;5.22;97.56
65573;SHT30;52214;50.940;13.996;2023-01-08T15:14:47;5.19;98.02
65573;SHT30;52214;50.940;13.996;2023-01-08T15:17:17;5.21;98.07
65573;SHT30;52214;50.940;13.996;2023-01-08T15:19:49;5.14;98.07
65573;SHT30;52214;50.940;13.996;2023-01-08T15:22:21;5.18;98.14
65573;SHT30;52214;50.940;13.996;2023-01-08T15:25:04;5.22;98.27
65573;SHT30;52214;50.940;13.996;2023-01-08T15:27:31;5.24;97.95
65573;SHT30;52214;50.940;13.996;2023-01-08T15:29:58;5.22;98.00
65573;SHT30;52214;50.940;13.996;2023-01-08T15:32:35;5.24;97.98
65573;SHT30;52214;50.940;13.996;2023-01-08T15:35:14;5.25;98.23
65573;SHT30;52214;50.940;13.996;2023-01-08T15:37:40;5.21;97.85
65573;SHT30;52214;50.940;13.996;2023-01-08T15:40:06;5.25;97.79
65573;SHT30;52214;50.940;13.996;2023-01-08T15:42:33;5.24;98.03
65573;SHT30;52214;50.940;13.996;2023-01-08T15:45:20;5.17;98.09
65573;SHT30;52214;50.940;13.996;2023-01-08T15:47:46;5.21;98.07
65573;SHT30;52214;50.940;13.996;2023-01-08T15:50:12;5.14;98.41
65573;SHT30;52214;50.940;13.996;2023-01-08T15:52:39;5.18;97.79
65573;SHT30;52214;50.940;13.996;2023-01-08T15:55:06;5.25;97.49
65573;SHT30;52214;50.940;13.996;2023-01-08T15:57:32;5.18;97.90
65573;SHT30;52214;50.940;13.996;2023-01-08T15:59:58;5.17;97.94
65573;SHT30;52214;50.940;13.996;2023-01-08T16:02:24;5.19;98.42
65573;SHT30;52214;50.940;13.996;2023-01-08T16:04:53;5.24;97.95
65573;SHT30;52214;50.940;13.996;2023-01-08T16:07:19;5.25;98.06
65573;SHT30;52214;50.940;13.996;2023-01-08T16:09:45;5.31;97.90
65573;SHT30;52214;50.940;13.996;2023-01-08T16:12:10;5.29;97.47
65573;SHT30;52214;50.940;13.996;2023-01-08T16:14:36;5.27;97.60
65573;SHT30;52214;50.940;13.996;2023-01-08T16:17:06;5.22;97.66
65573;SHT30;52214;50.940;13.996;2023-01-08T16:19:32;5.19;97.69
65573;SHT30;52214;50.940;13.996;2023-01-08T16:21:59;5.31;97.51
65573;SHT30;52214;50.940;13.996;2023-01-08T16:24:25;5.24;97.65
65573;SHT30;52214;50.940;13.996;2023-01-08T16:26:50;5.29;97.57
65573;SHT30;52214;50.940;13.996;2023-01-08T16:29:16;5.31;97.17
65573;SHT30;52214;50.940;13.996;2023-01-08T16:31:46;5.28;97.36
65573;SHT30;52214;50.940;13.996;2023-01-08T16:34:13;5.28;97.29
65573;SHT30;52214;50.940;13.996;2023-01-08T16:36:39;5.25;97.28
65573;SHT30;52214;50.940;13.996;2023-01-08T16:39:05;5.27;97.46
65573;SHT30;52214;50.940;13.996;2023-01-08T16:41:30;5.34;97.54
65573;SHT30;52214;50.940;13.996;2023-01-08T16:43:56;5.31;97.21
65573;SHT30;52214;50.940;13.996;2023-01-08T16:46:21;5.29;97.35